Keesler Air Force Base
KBIX : now visible

Airfield :











YOU CAN JOIN US ON...

 
LOGIN :

Register | Disclaimer

   EN    FR    IT 

 









Legend :    VFR   Marginal VFR   IFR   Intensive IFR   Very Intensive IFR
Visi :
Ceiling :
>= 8 km
>= 3000ft
5 to 8 km
1000 to 3000 ft
1500m to 5 km
500 to 1000 ft
800 to 1500m
200 to 500 ft
< 800m
< 200 ft
Symbols :   Thunderstorms  Fog  Heavy snow  Heavy precipitations  Wind > 20 kt






- Airport Elevation : 33 ft


KBIX - Keesler Air Force Base

CURRENT METAR :
  • 080601Z AUTO 23012KT 10SM BKN011 OVC017 24/23 A2995 RMK AO2 CIG 009 RWY04 SLP145

EXPIRED METARs :
  • 080546Z AUTO 23010KT 10SM SCT007 OVC013 24/23 A2996 RMK AO2 CIG 007V013 CIG 006 RWY04 SLP148
  • 080541Z AUTO 24010KT 10SM BKN008 OVC013 24/23 A2996 RMK AO2 CIG 006 RWY04 SLP148
  • 080526Z AUTO 23011KT 10SM BKN007 OVC013 24/23 A2996 RMK AO2 CIG 007V009 CIG 006 RWY04 SLP148
  • 080456Z AUTO 22009KT 10SM BKN009 24/23 A2996 RMK AO2 CIG 006 RWY04 SLP148 T02370233
  • 080356Z AUTO 22008KT 10SM OVC008 24/23 A2997 RMK AO2 OVC V BKN CIG 005 RWY04 SLP152 T02380233
  • 080331Z AUTO 22009KT 10SM OVC008 24/24 A2997 RMK AO2 CIG 006V008 CIG 005 RWY04 SLP152

TAF TAF KBIX
Valid from the 08 at 02:00 until the 09 at 08:00 UTC


080200Z 0802/0908 19009KT 4800 BR BKN005 QNH2990INS
TEMPO 0802/0804 SCT006
BECMG 0816/0817 24010G15KT 9999 NSW SCT020 QNH2992INS
BECMG 0823/0824 22009KT 9999 SCT020 QNH2984INS
BECMG 0900/0901 21009KT 8000 BR SCT015 QNH2984INS
BECMG 0906/0907 24009KT 4800 BR BKN008 QNH2983INS TX26/0820Z TN22/0808Z



MET'MAP, your aeronautical weather chart ! - Copyright ORBIFLY December 2007 - Disclaimer

ORBIFLY MET'MAP TEAM :

Programming & Development : Alexandra Zaïnal
Concept & original design : Baudouin d'Aumeries
Assistance for programming : Marc-Olivier Méhu
Technical & hardware support : Manuel Goepfert

Contact : metmap@orbifly.com




SOURCES & CREDITS :

   NOAA       Earth
Advisory